createdAt,value
2022-12-20T00:02:22.992Z,12.50
2022-12-20T00:04:52.022Z,9.68
2022-12-20T00:07:19.549Z,9.85
2022-12-20T00:09:47.010Z,10.73
2022-12-20T00:12:14.452Z,9.35
2022-12-20T00:14:41.944Z,10.25
2022-12-20T00:17:09.474Z,9.43
2022-12-20T00:19:37.070Z,10.30
2022-12-20T00:22:05.890Z,11.57
2022-12-20T00:24:33.648Z,11.13
2022-12-20T00:27:01.132Z,12.25
2022-12-20T00:29:28.674Z,10.23
2022-12-20T00:31:56.223Z,12.30
2022-12-20T00:34:23.715Z,12.55
2022-12-20T00:36:51.194Z,11.98
2022-12-20T00:39:19.993Z,13.13
2022-12-20T00:41:47.451Z,13.95
2022-12-20T00:44:14.924Z,11.50
2022-12-20T00:46:42.439Z,10.75
2022-12-20T00:49:09.937Z,11.57
2022-12-20T00:51:37.458Z,12.40
2022-12-20T00:54:05.069Z,9.48
2022-12-20T00:56:34.032Z,8.55
2022-12-20T00:59:01.539Z,9.15
2022-12-20T01:01:31.543Z,9.68
2022-12-20T01:03:59.589Z,9.25
2022-12-20T01:06:27.440Z,8.93
2022-12-20T01:08:55.336Z,8.07
2022-12-20T01:11:23.422Z,8.55
2022-12-20T01:13:53.452Z,8.95
2022-12-20T01:16:22.196Z,8.07
2022-12-20T01:18:50.257Z,7.90
2022-12-20T01:21:18.395Z,7.28
2022-12-20T01:23:46.217Z,8.35
2022-12-20T01:26:14.420Z,7.35
2022-12-20T01:28:43.103Z,7.10
2022-12-20T01:31:13.177Z,9.13
2022-12-20T01:33:40.969Z,7.88
2022-12-20T01:36:10.025Z,6.70
2022-12-20T01:38:37.579Z,6.93
2022-12-20T01:41:05.186Z,7.88
2022-12-20T01:43:46.515Z,6.22
2022-12-20T01:46:15.939Z,6.95
2022-12-20T01:48:44.618Z,7.22
2022-12-20T01:51:12.453Z,7.05
2022-12-20T01:53:40.088Z,7.47
2022-12-20T01:56:08.496Z,7.60
2022-12-20T01:58:38.471Z,6.45
2022-12-20T02:01:06.169Z,6.65
2022-12-20T02:03:35.097Z,7.72
2022-12-20T02:06:15.023Z,7.03
2022-12-20T02:08:42.580Z,6.72
2022-12-20T02:11:13.214Z,7.75
2022-12-20T02:13:46.770Z,6.50
2022-12-20T02:16:15.831Z,6.30
2022-12-20T02:18:47.235Z,6.60
2022-12-20T02:21:25.703Z,6.03
2022-12-20T02:24:11.948Z,6.15
2022-12-20T02:26:54.382Z,6.85
2022-12-20T02:29:23.707Z,6.10
2022-12-20T02:31:59.312Z,6.20
2022-12-20T02:34:27.329Z,7.80
2022-12-20T02:36:54.967Z,6.57
2022-12-20T02:39:24.062Z,5.85
2022-12-20T02:41:52.689Z,6.57
2022-12-20T02:44:39.785Z,5.82
2022-12-20T02:47:11.284Z,6.20
2022-12-20T02:49:41.294Z,6.15
2022-12-20T02:52:09.961Z,7.05
2022-12-20T02:54:37.721Z,6.57
2022-12-20T02:57:07.576Z,5.97
2022-12-20T02:59:37.461Z,6.30
2022-12-20T03:02:05.136Z,6.35
2022-12-20T03:04:36.130Z,6.55
2022-12-20T03:07:04.571Z,7.25
2022-12-20T03:09:33.520Z,7.82
2022-12-20T03:12:25.635Z,7.00
2022-12-20T03:14:53.183Z,7.10
2022-12-20T03:17:20.775Z,5.60
2022-12-20T03:19:49.756Z,6.32
2022-12-20T03:22:17.299Z,6.57
2022-12-20T03:24:44.842Z,6.35
2022-12-20T03:27:12.336Z,7.15
2022-12-20T03:29:39.910Z,7.22
2022-12-20T03:32:07.395Z,6.82
2022-12-20T03:34:34.924Z,7.72
2022-12-20T03:37:03.796Z,7.03
2022-12-20T03:39:31.432Z,6.40
2022-12-20T03:41:58.884Z,7.75
2022-12-20T03:44:26.574Z,8.18
2022-12-20T03:46:54.158Z,8.48
2022-12-20T03:49:21.620Z,6.28
2022-12-20T03:51:49.199Z,8.35
2022-12-20T03:54:18.030Z,5.95
2022-12-20T03:56:45.634Z,5.78
2022-12-20T03:59:13.126Z,6.55
2022-12-20T04:01:40.760Z,6.47
2022-12-20T04:04:08.555Z,5.97
2022-12-20T04:06:36.004Z,6.90
2022-12-20T04:09:03.509Z,7.07
2022-12-20T04:11:32.369Z,6.22
2022-12-20T04:13:59.898Z,5.72
2022-12-20T04:16:29.011Z,5.70
2022-12-20T04:18:56.639Z,5.35
2022-12-20T04:21:24.989Z,6.05
2022-12-20T04:23:52.719Z,6.35
2022-12-20T04:26:20.247Z,4.47
2022-12-20T04:28:49.199Z,6.05
2022-12-20T04:31:21.868Z,4.60
2022-12-20T04:33:51.570Z,5.10
2022-12-20T04:36:19.040Z,5.43
2022-12-20T04:38:46.644Z,5.35
2022-12-20T04:41:22.756Z,5.20
2022-12-20T04:43:52.596Z,5.40
2022-12-20T04:46:20.744Z,5.32
2022-12-20T04:48:57.877Z,4.93
2022-12-20T04:51:26.834Z,4.80
2022-12-20T04:53:53.444Z,5.15
2022-12-20T04:56:22.418Z,5.25
2022-12-20T04:58:51.195Z,4.03
2022-12-20T05:01:20.451Z,4.45
2022-12-20T05:03:49.225Z,4.75
2022-12-20T05:06:16.889Z,4.72
2022-12-20T05:08:44.647Z,5.13
2022-12-20T05:11:12.434Z,5.15
2022-12-20T05:13:39.949Z,5.25
2022-12-20T05:16:07.654Z,4.78
2022-12-20T05:18:36.597Z,5.15
2022-12-20T05:21:27.303Z,5.30
2022-12-20T05:24:12.071Z,5.13
2022-12-20T05:26:40.382Z,5.50
2022-12-20T05:29:07.928Z,6.72
2022-12-20T05:31:35.450Z,5.03
2022-12-20T05:34:04.342Z,4.93
2022-12-20T05:36:31.834Z,5.25
2022-12-20T05:39:04.001Z,5.30
2022-12-20T05:41:32.125Z,5.63
2022-12-20T05:43:59.613Z,5.38
2022-12-20T05:46:27.317Z,5.13
2022-12-20T05:48:55.003Z,5.47
2022-12-20T05:51:24.121Z,6.43
2022-12-20T05:53:51.759Z,5.45
2022-12-20T05:56:19.287Z,4.57
2022-12-20T05:58:46.765Z,4.28
2022-12-20T06:01:14.302Z,4.85
2022-12-20T06:03:41.911Z,4.45
2022-12-20T06:06:14.159Z,4.47
2022-12-20T06:08:43.965Z,4.78
2022-12-20T06:11:11.542Z,4.40
2022-12-20T06:13:39.073Z,5.00
2022-12-20T06:16:07.294Z,4.72
2022-12-20T06:18:34.942Z,4.70
2022-12-20T06:21:02.481Z,5.63
2022-12-20T06:23:29.968Z,4.72
2022-12-20T06:25:59.075Z,4.70
2022-12-20T06:28:26.581Z,5.82
2022-12-20T06:30:55.004Z,4.45
2022-12-20T06:33:22.737Z,4.65
2022-12-20T06:35:50.935Z,3.92
2022-12-20T06:38:18.508Z,3.92
2022-12-20T06:40:46.059Z,4.07
2022-12-20T06:43:14.946Z,4.90
2022-12-20T06:45:42.833Z,4.93
2022-12-20T06:48:10.535Z,4.22
2022-12-20T06:50:38.219Z,4.65
2022-12-20T06:53:05.740Z,3.80
2022-12-20T06:55:33.277Z,4.40
2022-12-20T06:58:00.741Z,4.45
2022-12-20T07:00:29.590Z,5.13
2022-12-20T07:02:58.665Z,5.22
2022-12-20T07:05:26.195Z,4.63
2022-12-20T07:07:53.651Z,5.25
2022-12-20T07:10:21.340Z,4.38
2022-12-20T07:12:48.857Z,5.75
2022-12-20T07:15:16.628Z,4.82
2022-12-20T07:17:51.496Z,5.05
2022-12-20T07:20:19.251Z,4.30
2022-12-20T07:22:48.664Z,6.10
2022-12-20T07:25:17.663Z,4.18
2022-12-20T07:27:47.769Z,4.70
2022-12-20T07:30:16.124Z,6.00
2022-12-20T07:32:43.923Z,5.45
2022-12-20T07:35:13.097Z,4.70
2022-12-20T07:37:41.057Z,5.65
2022-12-20T07:40:10.813Z,4.50
2022-12-20T07:42:46.186Z,4.78
2022-12-20T07:45:18.931Z,5.35
2022-12-20T07:47:46.547Z,4.68
2022-12-20T07:50:28.128Z,5.10
2022-12-20T07:52:56.275Z,5.10
2022-12-20T07:55:25.276Z,4.78
2022-12-20T07:57:54.828Z,5.00
2022-12-20T08:00:28.098Z,5.38
2022-12-20T08:03:00.293Z,5.50
2022-12-20T08:05:29.899Z,6.25
2022-12-20T08:08:00.182Z,5.65
2022-12-20T08:10:30.766Z,5.10
2022-12-20T08:13:02.364Z,5.03
2022-12-20T08:15:32.445Z,5.65
2022-12-20T08:18:00.632Z,5.20
2022-12-20T08:20:32.285Z,5.20
2022-12-20T08:23:15.457Z,5.65
2022-12-20T08:25:43.447Z,4.85
2022-12-20T08:28:25.213Z,5.22
2022-12-20T08:30:53.539Z,6.15
2022-12-20T08:33:21.276Z,7.43
2022-12-20T08:35:57.776Z,6.07
2022-12-20T08:38:27.994Z,6.38
2022-12-20T08:40:57.765Z,7.65
2022-12-20T08:43:26.982Z,6.05
2022-12-20T08:45:55.456Z,6.55
2022-12-20T08:48:23.236Z,5.63
2022-12-20T08:51:03.862Z,5.75
2022-12-20T08:53:31.947Z,6.28
2022-12-20T08:56:05.508Z,5.55
2022-12-20T08:58:33.611Z,6.57
2022-12-20T09:01:06.338Z,6.28
2022-12-20T09:03:37.765Z,5.20
2022-12-20T09:06:07.967Z,5.38
2022-12-20T09:08:35.660Z,4.78
2022-12-20T09:11:07.105Z,5.03
2022-12-20T09:13:39.643Z,5.20
2022-12-20T09:16:13.485Z,4.97
2022-12-20T09:18:41.307Z,5.32
2022-12-20T09:24:47.918Z,5.47
2022-12-20T09:27:15.509Z,5.45
2022-12-20T09:29:43.121Z,5.95
2022-12-20T09:32:10.690Z,5.25
2022-12-20T09:34:39.436Z,5.72
2022-12-20T09:37:07.162Z,5.70
2022-12-20T23:43:03.505Z,11.43
2022-12-20T23:45:31.088Z,10.90
2022-12-20T23:47:58.667Z,11.00
2022-12-20T23:50:26.146Z,9.60
2022-12-20T23:52:53.642Z,10.98
2022-12-20T23:55:21.123Z,9.65
2022-12-20T23:57:48.817Z,11.65
